createdAt,value
2023-07-29T00:02:02.082Z,74.00
2023-07-29T00:04:29.087Z,73.80
2023-07-29T00:06:56.092Z,73.60
2023-07-29T00:09:23.348Z,73.70
2023-07-29T00:11:50.340Z,73.80
2023-07-29T00:14:17.406Z,73.80
2023-07-29T00:16:44.558Z,74.00
2023-07-29T00:19:12.938Z,74.10
2023-07-29T00:21:40.021Z,74.10
2023-07-29T00:24:06.970Z,74.30
2023-07-29T00:26:34.450Z,74.30
2023-07-29T00:29:01.767Z,74.30
2023-07-29T00:31:28.853Z,74.20
2023-07-29T00:33:56.235Z,74.10
2023-07-29T00:36:24.687Z,74.10
2023-07-29T00:38:51.940Z,74.10
2023-07-29T00:41:19.520Z,73.80
2023-07-29T00:43:46.718Z,74.00
2023-07-29T00:46:14.144Z,74.00
2023-07-29T00:48:41.538Z,74.00
2023-07-29T00:51:08.850Z,74.00
2023-07-29T00:53:37.326Z,74.00
2023-07-29T00:56:04.687Z,73.80
2023-07-29T00:58:31.826Z,73.90
2023-07-29T01:00:59.141Z,74.00
2023-07-29T01:03:27.075Z,73.60
2023-07-29T01:06:08.562Z,74.00
2023-07-29T01:08:45.957Z,73.60
2023-07-29T01:11:25.993Z,73.60
2023-07-29T01:13:59.445Z,73.70
2023-07-29T01:16:34.090Z,73.90
2023-07-29T01:19:10.406Z,74.10
2023-07-29T01:21:38.404Z,73.60
2023-07-29T01:24:06.786Z,73.40
2023-07-29T01:26:34.121Z,73.80
2023-07-29T01:29:01.791Z,73.30
2023-07-29T01:31:34.707Z,73.60
2023-07-29T01:34:07.617Z,73.60
2023-07-29T01:36:39.621Z,73.90
2023-07-29T01:39:09.704Z,73.90
2023-07-29T01:41:37.403Z,73.50
2023-07-29T01:44:05.236Z,73.50
2023-07-29T01:46:34.847Z,74.00
2023-07-29T01:49:02.312Z,73.70
2023-07-29T01:51:29.381Z,73.50
2023-07-29T01:53:56.668Z,73.70
2023-07-29T01:56:25.143Z,73.90
2023-07-29T01:58:52.195Z,73.90
2023-07-29T02:01:19.477Z,73.40
2023-07-29T02:03:46.670Z,73.60
2023-07-29T02:06:13.679Z,73.50
2023-07-29T02:08:41.957Z,73.50
2023-07-29T02:11:09.620Z,73.40
2023-07-29T02:13:37.966Z,73.70
2023-07-29T02:16:05.467Z,73.40
2023-07-29T02:18:32.412Z,73.30
2023-07-29T02:20:59.421Z,73.50
2023-07-29T02:23:26.422Z,73.80
2023-07-29T02:25:53.360Z,74.20
2023-07-29T02:28:20.425Z,73.80
2023-07-29T02:31:08.825Z,73.70
2023-07-29T02:33:35.965Z,74.20
2023-07-29T02:36:03.054Z,74.10
2023-07-29T02:38:30.114Z,73.30
2023-07-29T02:40:57.099Z,73.00
2023-07-29T02:43:24.120Z,74.10
2023-07-29T02:45:52.525Z,73.60
2023-07-29T02:48:19.588Z,73.50
2023-07-29T02:50:46.679Z,73.60
2023-07-29T02:53:13.673Z,73.80
2023-07-29T02:55:41.736Z,73.50
2023-07-29T02:58:09.020Z,73.60
2023-07-29T03:00:36.714Z,73.40
2023-07-29T03:03:05.390Z,73.60
2023-07-29T03:05:32.436Z,73.80
2023-07-29T03:07:59.553Z,74.10
2023-07-29T03:10:26.641Z,74.00
2023-07-29T03:12:55.133Z,73.50
2023-07-29T03:15:25.665Z,73.20
2023-07-29T03:17:52.737Z,73.50
2023-07-29T03:20:21.451Z,73.60
2023-07-29T03:22:48.564Z,72.80
2023-07-29T03:25:15.644Z,73.10
2023-07-29T03:27:43.058Z,73.70
2023-07-29T03:30:11.040Z,73.20
2023-07-29T03:32:46.368Z,73.80
2023-07-29T03:35:13.311Z,73.20
2023-07-29T03:37:41.982Z,72.90
2023-07-29T03:40:12.676Z,73.80
2023-07-29T03:42:39.687Z,73.60
2023-07-29T03:45:07.749Z,73.50
2023-07-29T03:47:34.821Z,73.10
2023-07-29T03:50:01.917Z,73.00
2023-07-29T03:52:28.965Z,74.00
2023-07-29T03:54:57.372Z,73.90
2023-07-29T03:57:24.342Z,73.50
2023-07-29T03:59:51.592Z,73.40
2023-07-29T04:02:18.651Z,73.30
2023-07-29T04:04:48.581Z,73.60
2023-07-29T04:07:15.780Z,73.40
2023-07-29T04:09:44.635Z,73.90
2023-07-29T04:12:13.220Z,73.30
2023-07-29T04:14:40.299Z,73.30
2023-07-29T04:17:08.016Z,73.80
2023-07-29T04:19:35.016Z,73.80
2023-07-29T04:22:02.023Z,74.00
2023-07-29T04:24:29.570Z,73.80
2023-07-29T04:26:56.557Z,73.90
2023-07-29T04:29:25.060Z,73.30
2023-07-29T04:31:52.289Z,74.20
2023-07-29T04:34:20.069Z,74.00
2023-07-29T04:36:47.241Z,73.90
2023-07-29T04:39:14.782Z,73.50
2023-07-29T04:41:41.967Z,73.60
2023-07-29T04:44:09.077Z,72.90
2023-07-29T04:46:37.859Z,73.10
2023-07-29T04:49:05.124Z,73.00
2023-07-29T04:51:35.403Z,73.30
2023-07-29T04:54:02.463Z,74.30
2023-07-29T04:56:29.433Z,73.60
2023-07-29T04:58:56.619Z,73.70
2023-07-29T05:01:23.783Z,73.80
2023-07-29T05:03:52.771Z,74.30
2023-07-29T05:06:20.020Z,74.10
2023-07-29T05:08:47.044Z,74.10
2023-07-29T05:11:14.121Z,73.80
2023-07-29T05:13:41.663Z,74.00
2023-07-29T05:16:08.757Z,74.10
2023-07-29T05:18:35.884Z,73.60
2023-07-29T05:21:04.581Z,73.50
2023-07-29T05:23:31.617Z,73.10
2023-07-29T05:25:58.595Z,73.80
2023-07-29T05:28:25.716Z,73.90
2023-07-29T05:30:53.556Z,73.20
2023-07-29T05:33:21.076Z,73.90
2023-07-29T05:35:48.575Z,73.80
2023-07-29T05:38:16.973Z,73.70
2023-07-29T05:40:43.997Z,73.40
2023-07-29T05:43:11.921Z,72.70
2023-07-29T05:45:39.003Z,73.20
2023-07-29T05:48:06.129Z,73.30
2023-07-29T05:50:33.232Z,73.10
2023-07-29T05:53:00.282Z,72.90
2023-07-29T05:55:28.706Z,73.20
2023-07-29T05:57:57.266Z,73.60
2023-07-29T06:00:24.581Z,72.90
2023-07-29T06:02:51.793Z,73.60
2023-07-29T06:05:19.160Z,73.30
2023-07-29T06:07:46.339Z,73.30
2023-07-29T06:10:14.831Z,73.00
2023-07-29T06:12:43.166Z,73.20
2023-07-29T06:15:10.886Z,73.40
2023-07-29T06:17:37.960Z,73.50
2023-07-29T06:20:06.840Z,73.30
2023-07-29T06:22:34.019Z,72.80
2023-07-29T06:25:01.056Z,72.80
2023-07-29T06:27:28.330Z,72.70
2023-07-29T06:29:56.743Z,72.90
2023-07-29T06:32:23.858Z,72.80
2023-07-29T06:34:52.925Z,72.50
2023-07-29T06:37:19.974Z,72.60
2023-07-29T06:39:47.249Z,72.70
2023-07-29T06:42:14.338Z,72.30
2023-07-29T06:44:41.554Z,72.60
2023-07-29T06:47:09.969Z,72.00
2023-07-29T06:49:36.953Z,72.30
2023-07-29T06:52:04.337Z,72.40
2023-07-29T06:54:31.314Z,72.40
2023-07-29T06:56:58.326Z,72.00
2023-07-29T06:59:25.797Z,71.80
2023-07-29T07:01:52.834Z,71.70
2023-07-29T07:04:21.322Z,71.90
2023-07-29T07:06:48.336Z,71.30
2023-07-29T07:09:15.367Z,71.60
2023-07-29T07:11:42.321Z,71.40
2023-07-29T07:14:09.358Z,71.40
2023-07-29T07:16:38.230Z,71.30
2023-07-29T07:19:05.635Z,71.10
2023-07-29T07:21:34.081Z,71.10
2023-07-29T07:24:01.110Z,71.10
2023-07-29T07:26:28.113Z,70.90
2023-07-29T07:28:55.171Z,70.60
2023-07-29T07:31:23.745Z,70.60
2023-07-29T07:33:50.852Z,70.70
2023-07-29T07:36:17.887Z,70.60
2023-07-29T07:38:46.429Z,70.70
2023-07-29T07:41:13.432Z,70.50
2023-07-29T07:43:40.375Z,70.80
2023-07-29T07:46:07.360Z,70.50
2023-07-29T07:48:34.561Z,70.90
2023-07-29T07:51:01.559Z,70.80
2023-07-29T07:53:28.693Z,70.80
2023-07-29T07:55:57.080Z,70.70
2023-07-29T07:58:24.053Z,70.70
2023-07-29T08:00:51.050Z,70.70
2023-07-29T08:03:19.157Z,70.70
2023-07-29T08:05:46.289Z,70.50
2023-07-29T08:08:13.281Z,70.60
2023-07-29T08:10:40.257Z,70.00
2023-07-29T08:13:09.270Z,70.40
2023-07-29T08:15:36.332Z,70.30
2023-07-29T08:18:03.464Z,70.40
2023-07-29T08:20:30.486Z,70.20
2023-07-29T08:22:57.952Z,70.20
2023-07-29T08:25:25.231Z,70.60
2023-07-29T08:27:52.187Z,70.00
2023-07-29T08:30:20.710Z,70.00
2023-07-29T08:32:48.210Z,69.80
2023-07-29T08:35:15.463Z,69.90
2023-07-29T08:37:42.445Z,69.50
2023-07-29T08:40:10.354Z,69.30
2023-07-29T08:42:42.726Z,69.50
2023-07-29T08:45:10.605Z,69.70
2023-07-29T08:47:39.212Z,69.50
2023-07-29T08:50:07.931Z,69.50
2023-07-29T08:52:36.514Z,69.50
2023-07-29T08:55:04.483Z,69.40
2023-07-29T08:57:32.219Z,69.20
2023-07-29T08:59:59.860Z,69.10
2023-07-29T09:02:27.159Z,68.70
2023-07-29T09:04:55.923Z,69.10
2023-07-29T09:07:23.169Z,69.50
2023-07-29T09:09:50.215Z,68.90
2023-07-29T09:12:17.523Z,68.40
2023-07-29T09:14:44.606Z,68.50
2023-07-29T09:17:11.893Z,68.20
2023-07-29T09:19:39.056Z,68.20
2023-07-29T09:22:19.162Z,68.20
2023-07-29T09:24:46.838Z,68.00
2023-07-29T09:27:25.288Z,67.60
2023-07-29T09:29:52.236Z,67.80
2023-07-29T09:32:20.967Z,67.60
2023-07-29T09:34:48.972Z,67.70
2023-07-29T09:37:22.613Z,67.50
2023-07-29T09:39:50.749Z,67.60
2023-07-29T09:42:19.799Z,67.30
2023-07-29T09:44:47.049Z,66.90
2023-07-29T09:47:22.454Z,66.70
2023-07-29T09:49:49.735Z,66.50
2023-07-29T09:52:17.743Z,67.00
2023-07-29T09:54:47.664Z,67.20
2023-07-29T09:57:15.679Z,66.60
2023-07-29T09:59:42.814Z,67.00
2023-07-29T10:02:15.379Z,67.10
2023-07-29T10:04:43.074Z,66.70
2023-07-29T10:07:10.764Z,66.70
2023-07-29T10:09:38.864Z,66.50
2023-07-29T10:12:09.064Z,66.50
2023-07-29T10:14:37.863Z,66.50
2023-07-29T10:17:06.309Z,66.30
2023-07-29T10:19:33.521Z,66.70
2023-07-29T10:22:02.494Z,67.30
2023-07-29T10:24:32.154Z,66.80
2023-07-29T10:27:00.728Z,66.50
2023-07-29T10:29:33.197Z,66.40
2023-07-29T10:32:04.451Z,66.00
2023-07-29T10:34:32.551Z,66.10
2023-07-29T10:37:00.296Z,66.20
2023-07-29T10:39:27.728Z,66.00
2023-07-29T10:41:59.565Z,66.40
2023-07-29T10:44:50.724Z,66.00
2023-07-29T10:47:19.469Z,65.90
2023-07-29T10:49:48.808Z,66.10
2023-07-29T10:52:17.975Z,66.00
2023-07-29T10:54:45.896Z,65.90
2023-07-29T10:57:18.969Z,66.10
2023-07-29T10:59:57.352Z,66.00
2023-07-29T11:02:30.744Z,66.30
2023-07-29T11:04:58.172Z,66.40
2023-07-29T11:10:03.796Z,66.00
2023-07-29T11:12:38.187Z,66.00
2023-07-29T11:15:14.888Z,65.30
2023-07-29T11:17:43.384Z,64.90
2023-07-29T11:20:11.439Z,65.60
2023-07-29T11:22:39.343Z,65.30
2023-07-29T11:25:08.519Z,65.00
2023-07-29T11:27:35.526Z,64.90
2023-07-29T11:30:06.137Z,64.60
2023-07-29T11:32:36.666Z,64.30
2023-07-29T11:35:05.198Z,64.70
2023-07-29T11:37:34.392Z,64.40
2023-07-29T11:40:01.805Z,64.30
2023-07-29T11:42:29.470Z,63.90
2023-07-29T11:44:58.438Z,63.70
2023-07-29T11:47:26.083Z,64.10
2023-07-29T11:49:54.757Z,64.00
2023-07-29T11:52:21.839Z,64.00
2023-07-29T11:54:51.134Z,64.30
2023-07-29T11:57:19.445Z,64.30
2023-07-29T11:59:47.907Z,64.40
2023-07-29T12:02:17.693Z,64.20
2023-07-29T12:04:47.223Z,64.20
2023-07-29T12:07:19.806Z,64.40
2023-07-29T12:09:47.853Z,64.20
2023-07-29T12:12:16.048Z,63.60
2023-07-29T12:14:46.601Z,64.50
2023-07-29T12:17:14.108Z,63.50
2023-07-29T12:19:43.024Z,63.40
2023-07-29T12:22:11.709Z,63.60
2023-07-29T12:24:41.308Z,63.80
2023-07-29T12:27:13.427Z,63.90
2023-07-29T12:29:44.810Z,63.90
2023-07-29T12:32:12.281Z,63.80
2023-07-29T12:34:40.468Z,64.00
2023-07-29T12:37:08.513Z,63.50
2023-07-29T12:39:37.099Z,63.40
2023-07-29T12:42:06.180Z,63.70
2023-07-29T12:44:34.668Z,64.30
2023-07-29T12:47:02.509Z,64.10
2023-07-29T12:49:30.502Z,63.90
2023-07-29T12:51:57.860Z,64.00
2023-07-29T12:54:24.984Z,64.10
2023-07-29T12:56:52.032Z,64.10
2023-07-29T12:59:20.474Z,64.00
2023-07-29T13:01:47.738Z,64.00
2023-07-29T13:04:14.840Z,63.70
2023-07-29T13:06:41.936Z,63.70
2023-07-29T13:09:08.973Z,63.50
2023-07-29T13:11:36.522Z,63.90
2023-07-29T13:14:03.799Z,63.80
2023-07-29T13:16:32.617Z,63.00
2023-07-29T13:19:00.097Z,62.80
2023-07-29T13:21:27.137Z,63.30
2023-07-29T13:23:54.187Z,63.10
2023-07-29T13:26:21.282Z,63.00
2023-07-29T13:28:48.479Z,62.90
2023-07-29T13:31:15.811Z,62.80
2023-07-29T13:33:44.233Z,62.60
2023-07-29T13:36:11.455Z,63.50
2023-07-29T13:38:38.489Z,62.90
2023-07-29T13:41:05.887Z,62.60
2023-07-29T13:43:33.226Z,62.00
2023-07-29T13:46:00.464Z,61.90
2023-07-29T13:48:27.537Z,61.90
2023-07-29T13:50:56.191Z,61.20
2023-07-29T13:53:23.232Z,60.60
2023-07-29T13:55:50.641Z,61.30
2023-07-29T13:58:17.714Z,60.80
2023-07-29T14:00:44.846Z,60.90
2023-07-29T14:03:11.964Z,60.40
2023-07-29T14:05:39.088Z,60.10
2023-07-29T14:08:07.498Z,60.10
2023-07-29T14:10:34.606Z,60.00
2023-07-29T14:13:01.627Z,60.40
2023-07-29T14:15:29.564Z,60.10
2023-07-29T14:17:56.636Z,60.30
2023-07-29T14:20:24.334Z,60.70
2023-07-29T14:22:51.382Z,60.10
2023-07-29T14:25:19.810Z,60.10
2023-07-29T14:27:47.016Z,60.10
2023-07-29T14:30:14.140Z,60.30
2023-07-29T14:32:41.167Z,59.50
2023-07-29T14:35:09.236Z,59.50
2023-07-29T14:37:36.502Z,59.40
2023-07-29T14:40:03.936Z,59.60
2023-07-29T14:42:34.579Z,59.70
2023-07-29T14:45:03.148Z,59.20
2023-07-29T14:47:33.803Z,59.50
2023-07-29T14:50:00.954Z,59.30
2023-07-29T14:52:28.128Z,59.60
2023-07-29T14:54:55.266Z,59.30
2023-07-29T14:57:22.849Z,59.10
2023-07-29T14:59:51.334Z,59.30
2023-07-29T15:02:19.306Z,59.40
2023-07-29T15:04:46.628Z,60.30
2023-07-29T15:07:13.614Z,61.60
2023-07-29T15:09:40.587Z,63.90
2023-07-29T15:12:08.884Z,66.30
2023-07-29T15:14:35.940Z,66.20
2023-07-29T15:17:04.773Z,65.80
2023-07-29T15:19:31.972Z,66.80
2023-07-29T15:21:59.045Z,66.80
2023-07-29T15:24:26.110Z,66.90
2023-07-29T15:26:53.243Z,66.90
2023-07-29T15:29:20.269Z,66.70
2023-07-29T15:31:47.407Z,67.10
2023-07-29T15:34:16.483Z,67.60
2023-07-29T15:36:43.545Z,67.40
2023-07-29T15:39:10.595Z,67.30
2023-07-29T15:41:37.868Z,67.80
2023-07-29T15:44:05.104Z,67.70
2023-07-29T15:46:32.181Z,67.30
2023-07-29T15:49:00.850Z,67.80
2023-07-29T15:51:29.338Z,67.70
2023-07-29T15:53:56.364Z,67.30
2023-07-29T15:56:23.415Z,67.20
2023-07-29T15:58:50.498Z,67.30
2023-07-29T16:01:17.608Z,66.70
2023-07-29T16:03:44.811Z,66.50
2023-07-29T16:06:11.931Z,67.00
2023-07-29T16:08:40.270Z,66.90
2023-07-29T16:11:07.575Z,67.10
2023-07-29T16:13:34.637Z,67.40
2023-07-29T16:16:01.637Z,68.20
2023-07-29T16:18:28.646Z,67.30
2023-07-29T16:20:57.153Z,67.90
2023-07-29T16:23:24.121Z,68.40
2023-07-29T16:25:52.477Z,68.40
2023-07-29T16:28:19.517Z,68.00
2023-07-29T16:30:46.792Z,67.60
2023-07-29T16:33:14.004Z,68.20
2023-07-29T16:35:42.500Z,67.90
2023-07-29T16:38:09.585Z,67.80
2023-07-29T16:40:36.865Z,67.70
2023-07-29T16:43:05.224Z,67.60
2023-07-29T16:45:32.449Z,67.50
2023-07-29T16:47:59.534Z,67.40
2023-07-29T16:50:26.770Z,67.50
2023-07-29T16:52:54.897Z,67.60
2023-07-29T16:55:22.345Z,67.30
2023-07-29T16:57:49.453Z,67.20
2023-07-29T17:00:18.008Z,67.30
2023-07-29T17:02:45.294Z,67.20
2023-07-29T17:05:12.393Z,67.10
2023-07-29T17:07:39.567Z,67.10
2023-07-29T17:10:07.616Z,67.00
2023-07-29T17:12:34.582Z,67.20
2023-07-29T17:15:03.030Z,67.00
2023-07-29T17:17:31.489Z,67.00
2023-07-29T17:19:58.522Z,66.90
2023-07-29T17:22:25.609Z,66.80
2023-07-29T17:24:52.840Z,67.40
2023-07-29T17:27:19.802Z,66.80
2023-07-29T17:29:47.210Z,66.70
2023-07-29T17:32:14.413Z,67.00
2023-07-29T17:34:42.795Z,67.10
2023-07-29T17:37:09.852Z,67.00
2023-07-29T17:39:38.838Z,67.00
2023-07-29T17:42:07.580Z,66.90
2023-07-29T17:44:34.902Z,66.90
2023-07-29T17:47:01.905Z,66.90
2023-07-29T17:49:29.094Z,66.80
2023-07-29T17:51:57.528Z,66.90
2023-07-29T17:54:24.576Z,66.90
2023-07-29T17:56:51.545Z,66.70
2023-07-29T17:59:18.688Z,66.70
2023-07-29T18:01:49.483Z,66.80
2023-07-29T18:04:16.669Z,66.80
2023-07-29T18:06:43.824Z,67.40
2023-07-29T18:09:12.327Z,66.80
2023-07-29T18:11:41.797Z,66.70
2023-07-29T18:14:09.552Z,66.70
2023-07-29T18:16:39.268Z,66.80
2023-07-29T18:19:06.678Z,66.70
2023-07-29T18:21:33.725Z,66.70
2023-07-29T18:24:00.731Z,66.50
2023-07-29T18:26:29.208Z,66.60
2023-07-29T18:28:58.552Z,66.60
2023-07-29T18:31:26.682Z,66.70
2023-07-29T18:33:54.028Z,66.60
2023-07-29T18:36:21.163Z,66.60
2023-07-29T18:38:48.189Z,66.50
2023-07-29T18:41:16.329Z,66.40
2023-07-29T18:43:44.713Z,65.80
2023-07-29T18:46:11.806Z,66.10
2023-07-29T18:48:38.928Z,66.50
2023-07-29T18:51:06.066Z,66.40
2023-07-29T18:53:33.092Z,66.20
2023-07-29T18:56:00.098Z,66.00
2023-07-29T18:58:27.146Z,65.80
2023-07-29T19:00:55.582Z,66.20
2023-07-29T19:03:24.205Z,66.20
2023-07-29T19:05:56.235Z,66.30
2023-07-29T19:08:23.184Z,65.70
2023-07-29T19:10:50.298Z,66.00
2023-07-29T19:13:17.281Z,65.60
2023-07-29T19:15:53.386Z,65.10
2023-07-29T19:18:23.295Z,65.20
2023-07-29T19:20:50.716Z,65.50
2023-07-29T19:23:17.865Z,65.90
2023-07-29T19:25:46.166Z,65.90
2023-07-29T19:28:13.349Z,66.00
2023-07-29T19:30:40.496Z,66.10
2023-07-29T19:33:08.773Z,66.00
2023-07-29T19:35:37.196Z,66.10
2023-07-29T19:38:04.493Z,66.20
2023-07-29T19:40:35.360Z,66.50
2023-07-29T19:43:02.456Z,66.50
2023-07-29T19:45:29.463Z,66.70
2023-07-29T19:47:57.629Z,66.60
2023-07-29T19:50:25.428Z,66.70
2023-07-29T19:52:53.826Z,66.80
2023-07-29T19:55:20.877Z,66.80
2023-07-29T19:57:47.917Z,66.80
2023-07-29T20:00:15.005Z,66.90
2023-07-29T20:02:42.117Z,67.10
2023-07-29T20:05:09.962Z,67.30
2023-07-29T20:07:36.971Z,67.80
2023-07-29T20:10:06.400Z,67.30
2023-07-29T20:12:33.507Z,67.50
2023-07-29T20:15:04.318Z,67.50
2023-07-29T20:17:31.613Z,67.40
2023-07-29T20:19:58.645Z,68.00
2023-07-29T20:22:25.617Z,67.70
2023-07-29T20:24:53.007Z,67.80
2023-07-29T20:27:21.347Z,67.90
2023-07-29T20:29:48.498Z,67.70
2023-07-29T20:32:15.493Z,68.20
2023-07-29T20:34:42.506Z,67.70
2023-07-29T20:37:09.509Z,68.10
2023-07-29T20:39:36.715Z,67.60
2023-07-29T20:42:03.997Z,67.90
2023-07-29T20:44:33.631Z,68.30
2023-07-29T20:47:02.296Z,68.40
2023-07-29T20:49:29.508Z,67.90
2023-07-29T20:51:56.468Z,68.40
2023-07-29T20:54:23.517Z,68.10
2023-07-29T20:56:50.513Z,68.50
2023-07-29T20:59:17.563Z,68.20
2023-07-29T21:01:46.198Z,68.10
2023-07-29T21:04:13.426Z,68.10
2023-07-29T21:06:40.440Z,68.10
2023-07-29T21:09:07.426Z,68.10
2023-07-29T21:11:34.472Z,68.20
2023-07-29T21:14:01.894Z,67.90
2023-07-29T21:16:29.311Z,68.30
2023-07-29T21:18:58.817Z,68.00
2023-07-29T21:21:25.909Z,67.90
2023-07-29T21:23:52.965Z,67.80
2023-07-29T21:26:19.945Z,67.80
2023-07-29T21:28:47.078Z,67.80
2023-07-29T21:31:16.943Z,67.80
2023-07-29T21:33:45.307Z,67.80
2023-07-29T21:36:13.800Z,67.70
2023-07-29T21:38:41.941Z,67.70
2023-07-29T21:41:08.994Z,67.50
2023-07-29T21:43:36.352Z,67.60
2023-07-29T21:46:03.623Z,68.10
2023-07-29T21:48:30.825Z,67.70
2023-07-29T21:50:57.920Z,66.90
2023-07-29T21:53:26.533Z,66.90
2023-07-29T21:55:53.741Z,67.70
2023-07-29T21:58:21.930Z,67.70
2023-07-29T22:00:51.930Z,67.50
2023-07-29T22:03:18.942Z,67.30
2023-07-29T22:05:46.241Z,67.60
2023-07-29T22:08:13.349Z,66.10
2023-07-29T22:10:41.751Z,66.60
2023-07-29T22:13:08.798Z,67.40
2023-07-29T22:15:36.924Z,67.80
2023-07-29T22:18:04.191Z,67.70
2023-07-29T22:20:31.552Z,67.60
2023-07-29T22:22:58.672Z,67.10
2023-07-29T22:25:25.705Z,67.50
2023-07-29T22:27:54.204Z,67.10
2023-07-29T22:30:21.611Z,66.10
2023-07-29T22:32:49.580Z,66.80
2023-07-29T22:35:16.932Z,67.50
2023-07-29T22:37:44.039Z,67.80
2023-07-29T22:40:11.924Z,66.40
2023-07-29T22:42:39.090Z,67.50
2023-07-29T22:45:08.644Z,67.70
2023-07-29T22:47:35.766Z,67.60
2023-07-29T22:50:03.521Z,67.60
2023-07-29T22:52:30.529Z,68.00
2023-07-29T22:54:57.510Z,68.10
2023-07-29T22:57:24.584Z,67.80
2023-07-29T22:59:51.700Z,67.70
2023-07-29T23:02:22.291Z,67.80
2023-07-29T23:04:49.535Z,67.70
2023-07-29T23:07:16.551Z,67.60
2023-07-29T23:09:43.574Z,65.50
2023-07-29T23:12:10.789Z,67.00
2023-07-29T23:14:37.895Z,66.50
2023-07-29T23:17:05.216Z,66.70
2023-07-29T23:19:33.522Z,66.70
2023-07-29T23:22:00.586Z,66.60
2023-07-29T23:24:27.596Z,65.80
2023-07-29T23:26:54.657Z,66.30
2023-07-29T23:29:21.709Z,65.30
2023-07-29T23:31:49.043Z,66.20
2023-07-29T23:34:16.086Z,65.80
2023-07-29T23:36:44.451Z,64.50
2023-07-29T23:39:11.493Z,64.30
2023-07-29T23:41:38.670Z,66.20
2023-07-29T23:44:05.848Z,65.20
2023-07-29T23:46:32.885Z,64.10
2023-07-29T23:49:00.159Z,64.10
2023-07-29T23:51:27.181Z,65.60
2023-07-29T23:53:55.583Z,65.60
2023-07-29T23:56:22.748Z,64.40
2023-07-29T23:58:49.751Z,63.60
